createdAt,value
2022-09-16T00:01:35.630Z,24.71
2022-09-16T00:16:37.165Z,22.43
2022-09-16T00:31:38.838Z,21.73
2022-09-16T00:46:43.995Z,23.42
2022-09-16T01:01:46.793Z,21.61
2022-09-16T01:17:08.581Z,21.67
2022-09-16T01:32:10.037Z,21.90
2022-09-16T01:47:27.436Z,21.47
2022-09-16T02:02:35.762Z,22.41
2022-09-16T02:17:39.899Z,21.61
2022-09-16T02:32:43.964Z,21.29
2022-09-16T02:47:49.676Z,21.23
2022-09-16T03:02:51.465Z,21.30
2022-09-16T03:18:11.527Z,21.51
2022-09-16T03:33:42.371Z,21.43
2022-09-16T03:48:43.821Z,21.15
2022-09-16T04:03:45.302Z,20.48
2022-09-16T04:18:46.900Z,20.06
2022-09-16T04:33:48.607Z,20.93
2022-09-16T04:48:50.475Z,21.45
2022-09-16T05:03:53.146Z,21.85
2022-09-16T05:18:55.830Z,24.54
2022-09-16T05:34:01.829Z,26.65
2022-09-16T05:49:03.536Z,25.32
2022-09-16T06:04:06.756Z,25.88
2022-09-16T06:19:10.750Z,27.27
2022-09-16T06:34:16.089Z,26.16
2022-09-16T06:49:17.543Z,27.53
2022-09-16T07:04:19.047Z,28.18
2022-09-16T07:19:20.505Z,27.80
2022-09-16T07:34:22.310Z,27.60
2022-09-16T07:49:23.804Z,28.08
2022-09-16T08:04:25.234Z,28.25
2022-09-16T08:19:26.753Z,29.16
2022-09-16T08:34:28.229Z,29.36
2022-09-16T08:49:32.546Z,28.70
2022-09-16T09:04:34.016Z,28.73
2022-09-16T09:19:53.548Z,28.70
2022-09-16T09:35:01.185Z,28.52
2022-09-16T09:50:10.048Z,29.28
2022-09-16T10:05:28.133Z,27.84
2022-09-16T10:20:36.976Z,25.65
2022-09-16T10:35:39.113Z,22.64
2022-09-16T10:50:52.096Z,20.82
2022-09-16T11:05:53.593Z,21.32
2022-09-16T11:21:02.581Z,24.00
2022-09-16T11:36:10.065Z,25.68
2022-09-16T11:51:30.224Z,27.71
2022-09-16T12:06:36.749Z,28.59
2022-09-16T12:21:47.104Z,27.89
2022-09-16T12:37:08.920Z,26.07
2022-09-16T12:52:16.260Z,24.51
2022-09-16T13:07:23.309Z,24.15
2022-09-16T13:22:36.073Z,22.11
2022-09-16T13:37:37.520Z,21.23
2022-09-16T13:52:39.158Z,21.83
2022-09-16T14:07:56.285Z,22.43
2022-09-16T14:23:04.987Z,22.67
2022-09-16T14:38:18.189Z,22.52
2022-09-16T14:53:36.268Z,22.84
2022-09-16T15:08:47.248Z,23.18
2022-09-16T15:23:50.925Z,22.95
2022-09-16T15:38:57.371Z,22.34
2022-09-16T15:54:15.786Z,21.86
2022-09-16T16:09:27.212Z,21.55
2022-09-16T16:24:30.660Z,21.44
2022-09-16T16:39:32.214Z,21.32
2022-09-16T16:54:34.088Z,19.95
2022-09-16T17:09:35.553Z,19.99
2022-09-16T17:24:37.226Z,19.82
2022-09-16T17:39:38.764Z,19.54
2022-09-16T17:54:41.311Z,19.58
2022-09-16T18:09:42.788Z,19.25
2022-09-16T18:24:44.406Z,19.15
2022-09-16T18:39:46.697Z,19.11
2022-09-16T18:54:48.451Z,19.45
2022-09-16T19:09:50.357Z,19.31
2022-09-16T19:24:54.225Z,19.49
2022-09-16T19:39:55.720Z,19.22
2022-09-16T19:54:57.207Z,19.22
2022-09-16T20:09:58.692Z,19.41
2022-09-16T20:25:19.178Z,19.24
2022-09-16T20:40:21.707Z,18.44
2022-09-16T20:55:23.210Z,19.04
2022-09-16T21:10:25.512Z,18.47
2022-09-16T21:25:26.983Z,18.57
2022-09-16T21:40:28.556Z,19.40
2022-09-16T21:55:30.410Z,18.53
2022-09-16T22:16:08.656Z,17.93
2022-09-16T22:31:11.731Z,18.01
2022-09-16T22:46:15.369Z,17.22
2022-09-16T23:01:18.264Z,17.21
2022-09-16T23:16:21.458Z,17.80
2022-09-16T23:31:24.356Z,18.17
2022-09-16T23:46:27.178Z,17.74
